Time;durP1;ratioP1;P1;durP2;ratioP2;P2;SDS_P1;SDS_P2;PMS_P1;PMS_P2;Temp;Humidity;BMP_temperature;BMP_pressure;BME280_temperature;BME280_humidity;BME280_pressure;Samples;Min_cycle;Max_cycle;Signal;HPM_P1;HPM_P2
2021/09/22 00:02:25;;;;;;;7.45;4.20;;;10.80;99.90;;;;;;6718474;88;20677;-77
2021/09/22 00:12:26;;;;;;;8.27;4.32;;;10.50;99.90;;;;;;6721127;88;20178;-77
2021/09/22 00:22:26;;;;;;;7.80;3.87;;;10.50;99.90;;;;;;6721400;88;20220;-77
2021/09/22 00:32:27;;;;;;;6.37;4.10;;;10.20;99.90;;;;;;6721050;88;20186;-78
2021/09/22 00:42:28;;;;;;;8.10;3.95;;;10.20;99.90;;;;;;6714249;88;20194;-77
2021/09/22 00:52:29;;;;;;;8.50;4.72;;;10.10;99.90;;;;;;6717152;88;20194;-77
2021/09/22 01:02:29;;;;;;;8.25;4.30;;;10.20;99.90;;;;;;6721452;88;20283;-77
2021/09/22 01:12:30;;;;;;;7.10;4.12;;;10.20;99.90;;;;;;6722042;88;20206;-77
2021/09/22 01:22:31;;;;;;;7.70;4.37;;;10.10;99.90;;;;;;6716812;88;20194;-77
2021/09/22 01:32:32;;;;;;;8.52;4.45;;;9.90;99.90;;;;;;6720257;88;20282;-76
2021/09/22 01:42:32;;;;;;;6.70;4.55;;;9.80;99.90;;;;;;6717843;88;20210;-77
2021/09/22 01:52:34;;;;;;;7.43;4.43;;;9.60;99.90;;;;;;6724709;88;20668;-77
2021/09/22 02:02:35;;;;;;;6.43;4.00;;;9.80;99.90;;;;;;6720810;88;20225;-77
2021/09/22 02:12:35;;;;;;;7.45;4.47;;;9.70;99.90;;;;;;6719383;88;20234;-78
2021/09/22 02:22:36;;;;;;;6.65;4.50;;;9.60;99.90;;;;;;6720442;88;20231;-77
2021/09/22 02:32:37;;;;;;;8.13;4.10;;;9.60;99.90;;;;;;6722703;88;20210;-77
2021/09/22 02:42:38;;;;;;;9.07;4.40;;;9.40;99.90;;;;;;6723867;88;20903;-76
2021/09/22 02:52:38;;;;;;;7.35;3.87;;;9.40;99.90;;;;;;6723585;88;20191;-76
2021/09/22 03:02:39;;;;;;;10.43;4.43;;;9.40;99.90;;;;;;6724643;88;20177;-77
2021/09/22 03:12:40;;;;;;;7.70;4.43;;;9.40;99.90;;;;;;6726233;88;20336;-77
2021/09/22 03:22:40;;;;;;;5.93;3.80;;;9.30;99.90;;;;;;6724898;88;20646;-77
2021/09/22 03:32:41;;;;;;;7.43;4.55;;;9.30;99.90;;;;;;6725240;88;20244;-77
2021/09/22 03:42:42;;;;;;;8.40;4.50;;;9.20;99.90;;;;;;6723837;88;20946;-77
2021/09/22 03:52:42;;;;;;;6.17;4.17;;;9.20;99.90;;;;;;6728352;88;20395;-77
2021/09/22 04:02:43;;;;;;;10.77;4.68;;;9.10;99.90;;;;;;6726231;88;20553;-77
2021/09/22 04:12:43;;;;;;;8.23;4.47;;;9.00;99.90;;;;;;6724710;88;20209;-76
2021/09/22 04:22:44;;;;;;;10.80;5.07;;;9.00;99.90;;;;;;6729633;88;21234;-76
2021/09/22 04:32:44;;;;;;;9.38;5.18;;;8.90;99.90;;;;;;6728597;88;20211;-77
2021/09/22 04:42:45;;;;;;;8.75;4.90;;;8.70;99.90;;;;;;6728251;88;20327;-77
2021/09/22 04:52:46;;;;;;;10.63;5.78;;;8.80;99.90;;;;;;6723232;88;20173;-76
2021/09/22 05:02:46;;;;;;;8.45;5.22;;;9.00;99.90;;;;;;6728316;88;20248;-77
2021/09/22 05:12:47;;;;;;;9.68;4.80;;;8.70;99.90;;;;;;6729392;88;20206;-76
2021/09/22 05:22:47;;;;;;;10.13;5.15;;;8.70;99.90;;;;;;6727728;88;20185;-77
2021/09/22 05:32:48;;;;;;;11.18;5.50;;;8.60;99.90;;;;;;6724749;88;20249;-76
2021/09/22 05:42:48;;;;;;;10.18;5.18;;;8.50;99.90;;;;;;6724318;88;20323;-77
2021/09/22 05:52:49;;;;;;;9.65;5.50;;;8.70;99.90;;;;;;6728561;88;20189;-77
2021/09/22 06:02:50;;;;;;;12.90;5.60;;;8.60;99.90;;;;;;6724111;88;20513;-76
2021/09/22 06:12:50;;;;;;;8.43;5.15;;;8.80;99.90;;;;;;6729056;88;20268;-77
2021/09/22 06:22:51;;;;;;;8.63;4.95;;;9.10;99.90;;;;;;6725326;88;20202;-78
2021/09/22 06:32:51;;;;;;;10.15;5.45;;;9.10;99.90;;;;;;6721669;88;20232;-77
2021/09/22 06:42:52;;;;;;;9.75;5.53;;;9.50;99.90;;;;;;6718738;88;20215;-76
2021/09/22 06:52:52;;;;;;;9.55;5.28;;;9.90;99.90;;;;;;6717193;88;20185;-77
2021/09/22 07:02:53;;;;;;;13.55;6.05;;;10.30;99.90;;;;;;6720718;88;20194;-77
2021/09/22 07:12:53;;;;;;;9.60;6.45;;;10.90;99.90;;;;;;6715069;88;20672;-77
2021/09/22 07:22:54;;;;;;;12.85;6.50;;;11.70;99.90;;;;;;6721519;88;20759;-78
2021/09/22 07:32:59;;;;;;;12.43;6.85;;;12.30;99.90;;;;;;6718011;88;20214;-78
2021/09/22 07:43:00;;;;;;;11.63;6.90;;;12.60;99.90;;;;;;6717176;88;20190;-79
2021/09/22 07:53:00;;;;;;;13.60;7.10;;;13.10;99.90;;;;;;6723732;88;20213;-78
2021/09/22 08:03:01;;;;;;;11.00;6.53;;;13.70;99.90;;;;;;6724052;88;20185;-79
2021/09/22 08:13:02;;;;;;;13.23;6.72;;;14.00;99.90;;;;;;6723227;88;21121;-76
2021/09/22 08:23:03;;;;;;;11.15;6.65;;;14.30;99.90;;;;;;6722972;88;20170;-77
2021/09/22 08:33:03;;;;;;;14.35;6.68;;;15.00;99.90;;;;;;6716758;88;20199;-78
2021/09/22 08:43:04;;;;;;;11.73;6.90;;;15.50;99.90;;;;;;6719150;88;20279;-78
2021/09/22 08:53:05;;;;;;;10.60;6.00;;;15.80;99.90;;;;;;6721204;88;20193;-78
2021/09/22 09:03:06;;;;;;;13.02;6.68;;;16.90;99.90;;;;;;6723931;88;20174;-78
2021/09/22 09:13:09;;;;;;;15.13;6.83;;;17.90;99.90;;;;;;6717848;88;20227;-77
2021/09/22 09:23:14;;;;;;;10.80;5.95;;;17.70;99.90;;;;;;6720729;88;20182;-77
2021/09/22 09:33:33;;;;;;;;;;;18.80;99.90;;;;;;6719678;88;20235;-77
2021/09/22 09:43:46;;;;;;;13.05;6.37;;;19.30;99.90;;;;;;6716430;88;20069;-77
2021/09/22 09:53:47;;;;;;;10.02;5.35;;;20.10;99.90;;;;;;6718384;88;20206;-77
2021/09/22 10:03:47;;;;;;;10.75;6.60;;;21.90;98.30;;;;;;6719751;88;20197;-77
2021/09/22 10:13:48;;;;;;;10.73;5.77;;;22.80;95.50;;;;;;6720898;88;20210;-77
2021/09/22 10:23:52;;;;;;;13.00;7.22;;;23.90;92.90;;;;;;6721064;88;21018;-77
2021/09/22 10:33:53;;;;;;;13.62;6.28;;;23.90;92.20;;;;;;6716896;88;20212;-77
2021/09/22 10:43:54;;;;;;;12.57;7.10;;;25.80;89.00;;;;;;6713196;88;20182;-77
2021/09/22 10:54:23;;;;;;;13.77;6.90;;;24.50;86.50;;;;;;6712916;88;20542;-78
2021/09/22 11:04:24;;;;;;;10.63;6.80;;;24.50;86.50;;;;;;6718845;88;20929;-78
2021/09/22 11:14:50;;;;;;;10.60;6.53;;;24.90;86.00;;;;;;6724225;88;20280;-77
2021/09/22 11:24:54;;;;;;;13.70;6.87;;;26.00;82.20;;;;;;6718373;88;20625;-78
2021/09/22 11:35:01;;;;;;;12.02;6.35;;;25.90;84.90;;;;;;6720315;88;20332;-78
2021/09/22 11:45:02;;;;;;;11.30;5.82;;;26.10;81.20;;;;;;6720366;88;20171;-78
2021/09/22 11:55:05;;;;;;;8.35;5.20;;;27.50;78.00;;;;;;6726131;88;20194;-78
2021/09/22 12:05:07;;;;;;;11.57;5.40;;;28.50;76.50;;;;;;6723534;88;20194;-77
2021/09/22 12:15:10;;;;;;;7.20;4.18;;;27.20;75.40;;;;;;6715168;88;20207;-78
2021/09/22 12:25:14;;;;;;;8.70;5.40;;;26.20;78.10;;;;;;6719761;88;20187;-78
2021/09/22 12:35:14;;;;;;;12.30;5.00;;;26.70;78.60;;;;;;6723236;88;20213;-78
2021/09/22 12:45:21;;;;;;;9.10;4.65;;;27.60;76.60;;;;;;6717092;88;20217;-78
2021/09/22 12:55:29;;;;;;;11.38;5.82;;;28.00;76.50;;;;;;6719009;88;20700;-77
2021/09/22 13:05:41;;;;;;;8.00;4.95;;;28.30;73.40;;;;;;6717417;88;20236;-78
2021/09/22 13:15:42;;;;;;;10.53;4.50;;;29.20;74.20;;;;;;6725030;88;20717;-78
2021/09/22 13:25:42;;;;;;;11.07;4.60;;;29.70;72.60;;;;;;6720735;88;20181;-78
2021/09/22 13:35:43;;;;;;;7.32;4.20;;;29.30;71.90;;;;;;6725225;88;20194;-77
2021/09/22 13:45:44;;;;;;;9.27;4.12;;;29.20;71.20;;;;;;6722740;88;20202;-77
2021/09/22 13:55:45;;;;;;;8.30;3.70;;;29.00;71.90;;;;;;6722543;88;20327;-78
2021/09/22 14:05:46;;;;;;;8.00;3.43;;;28.50;70.90;;;;;;6720272;88;20193;-77
2021/09/22 14:16:28;;;;;;;5.00;3.00;;;28.60;71.60;;;;;;6749272;77;20261;-81
2021/09/22 14:26:28;;;;;;;6.07;2.58;;;27.70;72.00;;;;;;6743489;88;20193;-80
2021/09/22 14:36:29;;;;;;;7.53;2.80;;;25.80;75.80;;;;;;6744239;88;20199;-80
2021/09/22 14:46:30;;;;;;;6.10;2.60;;;24.90;76.50;;;;;;6744860;88;20322;-79
2021/09/22 14:56:30;;;;;;;6.15;2.67;;;25.00;77.70;;;;;;6743356;88;20814;-79
2021/09/22 15:06:31;;;;;;;6.43;2.43;;;25.80;75.80;;;;;;6747264;88;20201;-80
2021/09/22 15:16:32;;;;;;;4.93;2.53;;;25.30;77.60;;;;;;6752640;88;20274;-79
2021/09/22 15:26:33;;;;;;;5.55;2.65;;;25.10;77.40;;;;;;6749717;88;20623;-80
2021/09/22 15:36:34;;;;;;;5.55;2.72;;;25.00;77.00;;;;;;6751106;88;20214;-83
2021/09/22 15:57:36;;;;;;;6.70;2.40;;;24.00;80.40;;;;;;6752020;88;20228;-81
2021/09/22 16:07:37;;;;;;;7.32;3.00;;;23.50;81.50;;;;;;6746917;87;20232;-81
2021/09/22 16:17:38;;;;;;;10.25;3.50;;;23.40;83.40;;;;;;6750378;87;20558;-81
2021/09/22 16:27:39;;;;;;;7.10;3.20;;;23.30;84.20;;;;;;6764666;88;20188;-80
2021/09/22 16:37:41;;;;;;;6.57;3.37;;;23.00;85.70;;;;;;6764952;88;22538;-80
2021/09/22 16:47:41;;;;;;;7.97;3.65;;;22.60;86.60;;;;;;6760755;88;20184;-80
2021/09/22 16:57:42;;;;;;;12.10;4.07;;;22.00;90.30;;;;;;6738191;88;20588;-81
2021/09/22 17:07:43;;;;;;;10.77;4.62;;;21.30;91.20;;;;;;6735218;88;20199;-80
2021/09/22 17:17:47;;;;;;;7.47;4.15;;;20.70;93.10;;;;;;6738406;88;20186;-81
2021/09/22 17:27:48;;;;;;;8.60;4.80;;;20.20;95.30;;;;;;6733853;88;20202;-81
2021/09/22 17:37:48;;;;;;;8.45;3.50;;;19.30;99.50;;;;;;6733861;88;20189;-80
2021/09/22 17:47:53;;;;;;;6.07;3.00;;;18.80;99.90;;;;;;6734249;88;20199;-80
2021/09/22 17:57:55;;;;;;;8.15;3.90;;;18.10;99.90;;;;;;6732798;88;20200;-79
2021/09/22 18:07:56;;;;;;;6.35;3.30;;;17.80;99.90;;;;;;6737813;88;20210;-82
2021/09/22 18:17:56;;;;;;;6.57;3.33;;;17.00;99.90;;;;;;6740337;88;20224;-81
2021/09/22 18:27:58;;;;;;;8.27;3.55;;;16.60;99.90;;;;;;6739912;88;20239;-79
2021/09/22 18:37:58;;;;;;;8.80;4.00;;;16.50;99.90;;;;;;6734697;88;20669;-81
2021/09/22 18:47:59;;;;;;;8.82;4.47;;;16.20;99.90;;;;;;6748365;88;20326;-80
2021/09/22 18:58:00;;;;;;;7.28;4.55;;;16.10;99.90;;;;;;6749441;88;20201;-81
2021/09/22 19:08:01;;;;;;;7.18;3.78;;;15.80;99.90;;;;;;6750091;88;20244;-81
2021/09/22 19:18:02;;;;;;;6.65;4.30;;;15.80;99.90;;;;;;6749388;88;20327;-79
2021/09/22 19:28:03;;;;;;;9.68;4.70;;;15.40;99.90;;;;;;6750976;88;20260;-81
2021/09/22 19:38:04;;;;;;;7.00;4.20;;;15.30;99.90;;;;;;6731679;88;20197;-82
2021/09/22 19:48:06;;;;;;;7.62;4.22;;;14.70;99.90;;;;;;6731177;88;20217;-79
2021/09/22 19:58:07;;;;;;;9.88;4.80;;;14.50;99.90;;;;;;6731749;88;20344;-81
2021/09/22 20:08:08;;;;;;;7.72;4.30;;;14.30;99.90;;;;;;6733039;88;20299;-80
2021/09/22 20:18:09;;;;;;;5.60;4.25;;;14.00;99.90;;;;;;6748593;88;20225;-81
2021/09/22 20:28:10;;;;;;;7.53;4.82;;;14.10;99.90;;;;;;6751001;88;20290;-80
2021/09/22 20:38:11;;;;;;;8.23;4.15;;;13.80;99.90;;;;;;6751083;88;20489;-80
2021/09/22 20:48:11;;;;;;;9.02;4.20;;;13.40;99.90;;;;;;6749418;88;20833;-80
2021/09/22 20:58:14;;;;;;;7.20;4.30;;;13.30;99.90;;;;;;6749979;88;20177;-81
2021/09/22 21:08:15;;;;;;;7.87;4.43;;;13.20;99.90;;;;;;6751242;88;20307;-81
2021/09/22 21:18:16;;;;;;;7.05;4.35;;;13.00;99.90;;;;;;6748823;88;20230;-80
2021/09/22 21:28:18;;;;;;;9.63;4.68;;;12.90;99.90;;;;;;6752086;88;20182;-80
2021/09/22 21:38:19;;;;;;;7.30;4.45;;;12.80;99.90;;;;;;6748291;88;20229;-81
2021/09/22 21:48:21;;;;;;;9.35;4.53;;;12.50;99.90;;;;;;6749527;88;20192;-80
2021/09/22 21:58:22;;;;;;;6.55;4.53;;;12.50;99.90;;;;;;6748533;88;20240;-79
2021/09/22 22:08:23;;;;;;;8.38;4.53;;;12.50;99.90;;;;;;6749186;88;20225;-80
2021/09/22 22:18:24;;;;;;;14.73;5.15;;;12.50;99.90;;;;;;6747357;88;20213;-79
2021/09/22 22:28:29;;;;;;;8.30;4.35;;;12.20;99.90;;;;;;6740444;88;20375;-79
2021/09/22 22:38:30;;;;;;;10.88;4.65;;;12.20;99.90;;;;;;6740779;88;20254;-79
2021/09/22 22:48:31;;;;;;;7.50;4.28;;;12.10;99.90;;;;;;6742334;88;20176;-79
2021/09/22 22:58:31;;;;;;;7.45;4.35;;;11.80;99.90;;;;;;6749317;88;20211;-79
2021/09/22 23:08:32;;;;;;;12.50;4.78;;;11.70;99.90;;;;;;6744688;88;20282;-81
2021/09/22 23:28:37;;;;;;;9.35;4.60;;;11.80;99.90;;;;;;6651457;88;20627;-76
2021/09/22 23:38:37;;;;;;;7.47;3.90;;;11.60;99.90;;;;;;6652045;88;20192;-76
2021/09/22 23:48:38;;;;;;;8.43;4.40;;;11.60;99.90;;;;;;6652256;88;20252;-76
2021/09/22 23:58:38;;;;;;;7.47;4.47;;;11.80;99.90;;;;;;6653070;88;20204;-76
